sensor_id;sensor_type;location;lat;lon;timestamp;P1;durP1;ratioP1;P2;durP2;ratioP2
25780;SDS011;13626;48.128;11.628;2024-03-23T00:53:11;4.10;;;2.60;;
25780;SDS011;13626;48.128;11.628;2024-03-23T00:55:37;4.10;;;2.88;;
25780;SDS011;13626;48.128;11.628;2024-03-23T00:58:04;6.78;;;2.83;;
25780;SDS011;13626;48.128;11.628;2024-03-23T01:00:30;3.97;;;2.83;;
25780;SDS011;13626;48.128;11.628;2024-03-23T01:02:56;4.80;;;2.50;;
25780;SDS011;13626;48.128;11.628;2024-03-23T01:05:23;6.05;;;2.60;;
25780;SDS011;13626;48.128;11.628;2024-03-23T01:07:50;3.00;;;2.40;;
25780;SDS011;13626;48.128;11.628;2024-03-23T01:10:16;3.58;;;2.63;;
25780;SDS011;13626;48.128;11.628;2024-03-23T01:12:42;4.20;;;2.55;;
25780;SDS011;13626;48.128;11.628;2024-03-23T01:15:09;4.00;;;2.70;;
25780;SDS011;13626;48.128;11.628;2024-03-23T01:17:35;2.83;;;2.50;;
25780;SDS011;13626;48.128;11.628;2024-03-23T01:20:01;4.82;;;3.00;;
25780;SDS011;13626;48.128;11.628;2024-03-23T01:22:28;5.30;;;2.70;;
25780;SDS011;13626;48.128;11.628;2024-03-23T01:24:54;3.58;;;2.45;;
25780;SDS011;13626;48.128;11.628;2024-03-23T01:27:20;3.95;;;2.78;;
25780;SDS011;13626;48.128;11.628;2024-03-23T01:29:47;5.82;;;3.03;;
25780;SDS011;13626;48.128;11.628;2024-03-23T01:32:13;3.25;;;2.65;;
25780;SDS011;13626;48.128;11.628;2024-03-23T01:34:39;4.63;;;2.63;;
25780;SDS011;13626;48.128;11.628;2024-03-23T01:37:06;3.90;;;2.40;;
25780;SDS011;13626;48.128;11.628;2024-03-23T01:39:32;6.13;;;2.60;;
25780;SDS011;13626;48.128;11.628;2024-03-23T01:41:58;4.85;;;2.70;;
25780;SDS011;13626;48.128;11.628;2024-03-23T01:44:25;5.35;;;3.10;;
25780;SDS011;13626;48.128;11.628;2024-03-23T01:46:51;3.67;;;2.70;;
25780;SDS011;13626;48.128;11.628;2024-03-23T01:49:17;5.85;;;2.70;;
25780;SDS011;13626;48.128;11.628;2024-03-23T01:51:44;3.85;;;2.67;;
25780;SDS011;13626;48.128;11.628;2024-03-23T01:54:10;3.22;;;2.53;;
25780;SDS011;13626;48.128;11.628;2024-03-23T01:56:37;4.03;;;2.63;;
25780;SDS011;13626;48.128;11.628;2024-03-23T01:59:03;5.82;;;2.85;;
25780;SDS011;13626;48.128;11.628;2024-03-23T02:01:30;3.55;;;2.45;;
25780;SDS011;13626;48.128;11.628;2024-03-23T02:03:57;5.22;;;2.55;;
25780;SDS011;13626;48.128;11.628;2024-03-23T02:06:25;3.60;;;2.47;;
25780;SDS011;13626;48.128;11.628;2024-03-23T02:08:52;3.40;;;2.35;;
25780;SDS011;13626;48.128;11.628;2024-03-23T02:11:18;5.18;;;2.33;;
25780;SDS011;13626;48.128;11.628;2024-03-23T02:13:45;2.88;;;2.22;;
25780;SDS011;13626;48.128;11.628;2024-03-23T02:16:11;3.58;;;2.30;;
25780;SDS011;13626;48.128;11.628;2024-03-23T02:18:38;4.10;;;2.10;;
25780;SDS011;13626;48.128;11.628;2024-03-23T02:21:05;3.15;;;2.22;;
25780;SDS011;13626;48.128;11.628;2024-03-23T02:23:31;3.03;;;2.20;;
25780;SDS011;13626;48.128;11.628;2024-03-23T02:25:58;3.15;;;1.90;;
25780;SDS011;13626;48.128;11.628;2024-03-23T02:28:24;2.78;;;2.20;;
25780;SDS011;13626;48.128;11.628;2024-03-23T02:30:50;6.13;;;2.83;;
25780;SDS011;13626;48.128;11.628;2024-03-23T02:33:17;3.40;;;2.40;;
25780;SDS011;13626;48.128;11.628;2024-03-23T02:35:43;5.65;;;2.47;;
25780;SDS011;13626;48.128;11.628;2024-03-23T02:38:10;3.85;;;2.45;;
25780;SDS011;13626;48.128;11.628;2024-03-23T02:40:36;3.13;;;2.10;;
25780;SDS011;13626;48.128;11.628;2024-03-23T02:43:03;3.90;;;2.38;;
25780;SDS011;13626;48.128;11.628;2024-03-23T02:45:29;4.43;;;2.35;;
25780;SDS011;13626;48.128;11.628;2024-03-23T02:47:56;3.67;;;2.30;;
25780;SDS011;13626;48.128;11.628;2024-03-23T02:50:22;4.38;;;2.60;;
25780;SDS011;13626;48.128;11.628;2024-03-23T02:52:49;5.93;;;2.42;;
25780;SDS011;13626;48.128;11.628;2024-03-23T02:55:15;3.50;;;2.28;;
25780;SDS011;13626;48.128;11.628;2024-03-23T02:57:42;2.20;;;2.00;;
25780;SDS011;13626;48.128;11.628;2024-03-23T03:00:08;5.10;;;2.28;;
25780;SDS011;13626;48.128;11.628;2024-03-23T03:02:36;3.15;;;2.28;;
25780;SDS011;13626;48.128;11.628;2024-03-23T03:05:03;5.03;;;2.60;;
25780;SDS011;13626;48.128;11.628;2024-03-23T03:07:30;3.47;;;2.20;;
25780;SDS011;13626;48.128;11.628;2024-03-23T03:09:57;4.72;;;1.98;;
25780;SDS011;13626;48.128;11.628;2024-03-23T03:12:23;2.75;;;2.20;;
25780;SDS011;13626;48.128;11.628;2024-03-23T03:14:50;3.95;;;2.25;;
25780;SDS011;13626;48.128;11.628;2024-03-23T03:17:16;5.18;;;2.40;;
25780;SDS011;13626;48.128;11.628;2024-03-23T03:19:42;4.35;;;2.08;;
25780;SDS011;13626;48.128;11.628;2024-03-23T03:22:11;3.35;;;2.28;;
25780;SDS011;13626;48.128;11.628;2024-03-23T03:24:37;3.35;;;2.13;;
25780;SDS011;13626;48.128;11.628;2024-03-23T03:27:06;4.53;;;2.20;;
25780;SDS011;13626;48.128;11.628;2024-03-23T03:29:32;2.83;;;2.10;;
25780;SDS011;13626;48.128;11.628;2024-03-23T03:32:01;3.10;;;2.25;;
25780;SDS011;13626;48.128;11.628;2024-03-23T03:34:28;3.55;;;2.13;;
25780;SDS011;13626;48.128;11.628;2024-03-23T03:36:54;5.10;;;2.17;;
25780;SDS011;13626;48.128;11.628;2024-03-23T03:39:20;3.80;;;2.58;;
25780;SDS011;13626;48.128;11.628;2024-03-23T03:41:48;3.03;;;1.95;;
25780;SDS011;13626;48.128;11.628;2024-03-23T03:44:14;3.67;;;2.05;;
25780;SDS011;13626;48.128;11.628;2024-03-23T03:46:41;2.72;;;1.80;;
25780;SDS011;13626;48.128;11.628;2024-03-23T03:49:08;2.80;;;2.08;;
25780;SDS011;13626;48.128;11.628;2024-03-23T03:51:35;5.88;;;2.15;;
25780;SDS011;13626;48.128;11.628;2024-03-23T03:54:01;2.38;;;1.90;;
25780;SDS011;13626;48.128;11.628;2024-03-23T03:56:28;3.88;;;2.08;;
25780;SDS011;13626;48.128;11.628;2024-03-23T03:58:54;3.45;;;2.10;;
25780;SDS011;13626;48.128;11.628;2024-03-23T04:01:20;4.03;;;2.33;;
25780;SDS011;13626;48.128;11.628;2024-03-23T04:03:47;3.25;;;2.25;;
25780;SDS011;13626;48.128;11.628;2024-03-23T04:06:18;3.00;;;2.17;;
25780;SDS011;13626;48.128;11.628;2024-03-23T04:08:45;5.20;;;2.30;;
25780;SDS011;13626;48.128;11.628;2024-03-23T04:11:11;3.17;;;2.20;;
25780;SDS011;13626;48.128;11.628;2024-03-23T04:13:37;3.20;;;1.98;;
25780;SDS011;13626;48.128;11.628;2024-03-23T04:16:06;4.03;;;2.20;;
25780;SDS011;13626;48.128;11.628;2024-03-23T04:18:34;5.40;;;2.38;;
25780;SDS011;13626;48.128;11.628;2024-03-23T04:21:01;3.65;;;2.05;;
25780;SDS011;13626;48.128;11.628;2024-03-23T04:23:28;3.13;;;2.10;;
25780;SDS011;13626;48.128;11.628;2024-03-23T04:25:54;4.95;;;2.25;;
25780;SDS011;13626;48.128;11.628;2024-03-23T04:28:20;3.58;;;2.10;;
25780;SDS011;13626;48.128;11.628;2024-03-23T04:30:47;2.97;;;1.92;;
25780;SDS011;13626;48.128;11.628;2024-03-23T04:33:14;2.70;;;2.00;;
25780;SDS011;13626;48.128;11.628;2024-03-23T04:35:40;3.35;;;1.95;;
25780;SDS011;13626;48.128;11.628;2024-03-23T04:38:06;4.25;;;2.45;;
25780;SDS011;13626;48.128;11.628;2024-03-23T04:40:33;3.55;;;1.95;;
25780;SDS011;13626;48.128;11.628;2024-03-23T04:42:59;2.17;;;1.95;;
25780;SDS011;13626;48.128;11.628;2024-03-23T04:45:26;3.50;;;1.98;;
25780;SDS011;13626;48.128;11.628;2024-03-23T04:47:52;2.65;;;1.73;;
25780;SDS011;13626;48.128;11.628;2024-03-23T04:50:19;3.15;;;1.80;;
25780;SDS011;13626;48.128;11.628;2024-03-23T04:52:45;3.55;;;1.70;;
25780;SDS011;13626;48.128;11.628;2024-03-23T04:55:11;3.15;;;1.80;;
25780;SDS011;13626;48.128;11.628;2024-03-23T04:57:39;3.28;;;1.70;;
25780;SDS011;13626;48.128;11.628;2024-03-23T05:00:06;4.22;;;1.85;;
25780;SDS011;13626;48.128;11.628;2024-03-23T05:02:42;1.85;;;1.60;;
25780;SDS011;13626;48.128;11.628;2024-03-23T05:05:09;2.72;;;1.58;;
25780;SDS011;13626;48.128;11.628;2024-03-23T05:07:35;3.03;;;1.70;;
25780;SDS011;13626;48.128;11.628;2024-03-23T05:10:01;4.07;;;2.08;;
25780;SDS011;13626;48.128;11.628;2024-03-23T05:12:28;2.67;;;1.80;;
25780;SDS011;13626;48.128;11.628;2024-03-23T05:14:55;5.22;;;1.70;;
25780;SDS011;13626;48.128;11.628;2024-03-23T05:17:21;4.00;;;1.75;;
25780;SDS011;13626;48.128;11.628;2024-03-23T05:19:47;2.42;;;1.73;;
25780;SDS011;13626;48.128;11.628;2024-03-23T05:22:14;2.03;;;1.80;;
25780;SDS011;13626;48.128;11.628;2024-03-23T05:24:40;2.38;;;1.80;;
25780;SDS011;13626;48.128;11.628;2024-03-23T05:27:06;2.78;;;1.70;;
25780;SDS011;13626;48.128;11.628;2024-03-23T05:29:33;10.48;;;1.70;;
25780;SDS011;13626;48.128;11.628;2024-03-23T05:31:59;5.00;;;1.85;;
25780;SDS011;13626;48.128;11.628;2024-03-23T05:34:25;2.63;;;1.83;;
25780;SDS011;13626;48.128;11.628;2024-03-23T05:36:52;5.15;;;3.47;;
25780;SDS011;13626;48.128;11.628;2024-03-23T05:39:18;1.73;;;1.63;;
25780;SDS011;13626;48.128;11.628;2024-03-23T05:41:47;2.22;;;1.58;;
25780;SDS011;13626;48.128;11.628;2024-03-23T05:44:14;1.27;;;1.17;;
25780;SDS011;13626;48.128;11.628;2024-03-23T05:46:40;4.72;;;1.67;;
25780;SDS011;13626;48.128;11.628;2024-03-23T05:49:07;3.65;;;1.75;;
25780;SDS011;13626;48.128;11.628;2024-03-23T05:51:33;1.63;;;1.40;;
25780;SDS011;13626;48.128;11.628;2024-03-23T05:53:59;2.10;;;1.40;;
25780;SDS011;13626;48.128;11.628;2024-03-23T05:56:26;1.95;;;1.60;;
25780;SDS011;13626;48.128;11.628;2024-03-23T05:58:52;2.38;;;1.40;;
25780;SDS011;13626;48.128;11.628;2024-03-23T06:01:19;2.50;;;1.55;;
25780;SDS011;13626;48.128;11.628;2024-03-23T06:03:45;2.10;;;1.55;;
25780;SDS011;13626;48.128;11.628;2024-03-23T06:06:11;1.90;;;1.50;;
25780;SDS011;13626;48.128;11.628;2024-03-23T06:08:38;3.28;;;1.50;;
25780;SDS011;13626;48.128;11.628;2024-03-23T06:11:04;5.93;;;1.60;;
25780;SDS011;13626;48.128;11.628;2024-03-23T06:13:34;3.90;;;1.40;;
25780;SDS011;13626;48.128;11.628;2024-03-23T06:16:00;2.65;;;1.40;;
25780;SDS011;13626;48.128;11.628;2024-03-23T06:18:27;2.95;;;1.80;;
25780;SDS011;13626;48.128;11.628;2024-03-23T06:20:53;2.50;;;1.52;;
25780;SDS011;13626;48.128;11.628;2024-03-23T06:23:20;1.83;;;1.40;;
25780;SDS011;13626;48.128;11.628;2024-03-23T06:25:46;3.08;;;1.73;;
25780;SDS011;13626;48.128;11.628;2024-03-23T06:28:13;1.83;;;1.30;;
25780;SDS011;13626;48.128;11.628;2024-03-23T06:30:41;1.95;;;1.50;;
25780;SDS011;13626;48.128;11.628;2024-03-23T06:33:07;3.13;;;1.90;;
25780;SDS011;13626;48.128;11.628;2024-03-23T06:35:34;3.10;;;1.40;;
25780;SDS011;13626;48.128;11.628;2024-03-23T06:38:00;2.10;;;1.45;;
25780;SDS011;13626;48.128;11.628;2024-03-23T06:40:27;2.25;;;1.52;;
25780;SDS011;13626;48.128;11.628;2024-03-23T06:42:53;1.65;;;1.30;;
25780;SDS011;13626;48.128;11.628;2024-03-23T06:45:19;4.00;;;1.67;;
25780;SDS011;13626;48.128;11.628;2024-03-23T06:47:48;1.95;;;1.30;;
25780;SDS011;13626;48.128;11.628;2024-03-23T06:50:16;3.28;;;1.48;;
25780;SDS011;13626;48.128;11.628;2024-03-23T06:52:42;1.40;;;1.23;;
25780;SDS011;13626;48.128;11.628;2024-03-23T06:55:08;4.75;;;1.25;;
25780;SDS011;13626;48.128;11.628;2024-03-23T06:57:35;2.65;;;1.20;;
25780;SDS011;13626;48.128;11.628;2024-03-23T07:00:01;2.70;;;1.20;;
25780;SDS011;13626;48.128;11.628;2024-03-23T07:02:28;1.35;;;1.20;;
25780;SDS011;13626;48.128;11.628;2024-03-23T07:04:54;2.17;;;1.10;;
25780;SDS011;13626;48.128;11.628;2024-03-23T07:07:21;1.83;;;1.42;;
25780;SDS011;13626;48.128;11.628;2024-03-23T07:09:47;2.05;;;1.00;;
25780;SDS011;13626;48.128;11.628;2024-03-23T07:12:14;1.88;;;1.63;;
25780;SDS011;13626;48.128;11.628;2024-03-23T07:14:40;1.73;;;1.30;;
25780;SDS011;13626;48.128;11.628;2024-03-23T07:17:07;1.92;;;1.42;;
25780;SDS011;13626;48.128;11.628;2024-03-23T07:19:33;2.83;;;1.67;;
25780;SDS011;13626;48.128;11.628;2024-03-23T07:21:59;3.67;;;1.63;;
25780;SDS011;13626;48.128;11.628;2024-03-23T07:24:25;3.15;;;2.00;;
25780;SDS011;13626;48.128;11.628;2024-03-23T07:26:52;3.78;;;1.48;;
25780;SDS011;13626;48.128;11.628;2024-03-23T07:29:19;2.72;;;1.40;;
25780;SDS011;13626;48.128;11.628;2024-03-23T07:31:45;1.58;;;1.40;;
25780;SDS011;13626;48.128;11.628;2024-03-23T07:34:12;3.00;;;1.30;;
25780;SDS011;13626;48.128;11.628;2024-03-23T07:36:38;2.47;;;2.00;;
25780;SDS011;13626;48.128;11.628;2024-03-23T07:39:05;1.65;;;1.38;;
25780;SDS011;13626;48.128;11.628;2024-03-23T07:41:33;1.85;;;1.30;;
25780;SDS011;13626;48.128;11.628;2024-03-23T07:44:00;4.70;;;1.60;;
25780;SDS011;13626;48.128;11.628;2024-03-23T07:46:27;2.85;;;1.45;;
25780;SDS011;13626;48.128;11.628;2024-03-23T07:48:53;3.40;;;1.60;;
25780;SDS011;13626;48.128;11.628;2024-03-23T07:51:22;3.05;;;1.58;;
25780;SDS011;13626;48.128;11.628;2024-03-23T07:53:49;2.53;;;1.88;;
25780;SDS011;13626;48.128;11.628;2024-03-23T07:56:16;3.85;;;1.70;;
25780;SDS011;13626;48.128;11.628;2024-03-23T07:58:44;2.10;;;1.85;;
25780;SDS011;13626;48.128;11.628;2024-03-23T08:01:14;1.98;;;1.67;;
25780;SDS011;13626;48.128;11.628;2024-03-23T08:03:41;4.70;;;2.05;;
25780;SDS011;13626;48.128;11.628;2024-03-23T08:06:08;1.60;;;1.40;;
25780;SDS011;13626;48.128;11.628;2024-03-23T08:08:34;3.90;;;1.70;;
25780;SDS011;13626;48.128;11.628;2024-03-23T08:11:01;5.53;;;1.70;;
25780;SDS011;13626;48.128;11.628;2024-03-23T08:13:28;3.95;;;2.20;;
25780;SDS011;13626;48.128;11.628;2024-03-23T08:15:57;3.28;;;1.90;;
25780;SDS011;13626;48.128;11.628;2024-03-23T08:18:24;4.75;;;2.00;;
25780;SDS011;13626;48.128;11.628;2024-03-23T08:23:26;2.67;;;1.90;;
25780;SDS011;13626;48.128;11.628;2024-03-23T08:25:59;3.80;;;2.05;;
25780;SDS011;13626;48.128;11.628;2024-03-23T08:28:26;1.95;;;1.75;;
25780;SDS011;13626;48.128;11.628;2024-03-23T08:30:53;4.68;;;2.08;;
25780;SDS011;13626;48.128;11.628;2024-03-23T08:33:20;2.45;;;1.70;;
25780;SDS011;13626;48.128;11.628;2024-03-23T08:35:53;2.20;;;2.00;;
25780;SDS011;13626;48.128;11.628;2024-03-23T08:38:20;3.58;;;2.08;;
25780;SDS011;13626;48.128;11.628;2024-03-23T08:40:47;2.55;;;2.00;;
25780;SDS011;13626;48.128;11.628;2024-03-23T08:43:13;4.63;;;1.80;;
25780;SDS011;13626;48.128;11.628;2024-03-23T08:45:39;2.92;;;1.50;;
25780;SDS011;13626;48.128;11.628;2024-03-23T08:48:06;3.33;;;1.60;;
25780;SDS011;13626;48.128;11.628;2024-03-23T08:50:33;2.75;;;1.80;;
25780;SDS011;13626;48.128;11.628;2024-03-23T08:52:59;2.25;;;1.77;;
25780;SDS011;13626;48.128;11.628;2024-03-23T08:55:26;2.00;;;1.77;;
25780;SDS011;13626;48.128;11.628;2024-03-23T08:57:52;2.50;;;1.60;;
25780;SDS011;13626;48.128;11.628;2024-03-23T09:00:18;3.55;;;2.00;;
25780;SDS011;13626;48.128;11.628;2024-03-23T09:02:47;4.53;;;1.92;;
25780;SDS011;13626;48.128;11.628;2024-03-23T09:05:13;4.07;;;1.73;;
25780;SDS011;13626;48.128;11.628;2024-03-23T09:07:41;2.05;;;1.85;;
25780;SDS011;13626;48.128;11.628;2024-03-23T09:10:07;2.95;;;1.63;;
25780;SDS011;13626;48.128;11.628;2024-03-23T09:12:33;2.17;;;1.92;;
25780;SDS011;13626;48.128;11.628;2024-03-23T09:15:00;3.03;;;1.98;;
25780;SDS011;13626;48.128;11.628;2024-03-23T09:17:26;3.17;;;2.40;;
25780;SDS011;13626;48.128;11.628;2024-03-23T09:19:52;3.03;;;2.53;;
25780;SDS011;13626;48.128;11.628;2024-03-23T09:22:19;3.05;;;2.30;;
25780;SDS011;13626;48.128;11.628;2024-03-23T09:24:45;3.08;;;2.03;;
25780;SDS011;13626;48.128;11.628;2024-03-23T09:27:11;3.47;;;2.35;;
25780;SDS011;13626;48.128;11.628;2024-03-23T09:29:38;4.80;;;2.10;;
25780;SDS011;13626;48.128;11.628;2024-03-23T09:32:04;3.30;;;2.28;;
25780;SDS011;13626;48.128;11.628;2024-03-23T09:34:31;3.58;;;2.25;;
25780;SDS011;13626;48.128;11.628;2024-03-23T09:36:57;3.85;;;2.00;;
25780;SDS011;13626;48.128;11.628;2024-03-23T09:39:23;2.50;;;1.90;;
25780;SDS011;13626;48.128;11.628;2024-03-23T09:41:50;3.25;;;2.00;;
25780;SDS011;13626;48.128;11.628;2024-03-23T09:44:16;4.55;;;2.00;;
25780;SDS011;13626;48.128;11.628;2024-03-23T09:46:42;3.03;;;2.00;;
25780;SDS011;13626;48.128;11.628;2024-03-23T09:49:09;1.48;;;1.23;;
25780;SDS011;13626;48.128;11.628;2024-03-23T09:51:36;1.30;;;1.20;;
25780;SDS011;13626;48.128;11.628;2024-03-23T09:54:02;1.80;;;1.58;;
25780;SDS011;13626;48.128;11.628;2024-03-23T09:56:29;1.25;;;1.00;;
25780;SDS011;13626;48.128;11.628;2024-03-23T09:59:02;1.83;;;1.00;;
25780;SDS011;13626;48.128;11.628;2024-03-23T10:01:29;1.88;;;1.10;;
25780;SDS011;13626;48.128;11.628;2024-03-23T10:03:56;1.38;;;1.08;;
25780;SDS011;13626;48.128;11.628;2024-03-23T10:06:22;1.70;;;1.42;;
25780;SDS011;13626;48.128;11.628;2024-03-23T10:08:52;2.58;;;0.93;;
25780;SDS011;13626;48.128;11.628;2024-03-23T10:11:20;1.58;;;1.02;;
25780;SDS011;13626;48.128;11.628;2024-03-23T10:13:47;1.95;;;1.00;;
25780;SDS011;13626;48.128;11.628;2024-03-23T10:16:23;1.10;;;0.85;;
25780;SDS011;13626;48.128;11.628;2024-03-23T10:18:49;3.25;;;0.90;;
25780;SDS011;13626;48.128;11.628;2024-03-23T10:21:16;0.95;;;0.63;;
25780;SDS011;13626;48.128;11.628;2024-03-23T10:23:43;0.70;;;0.70;;
25780;SDS011;13626;48.128;11.628;2024-03-23T10:26:20;1.27;;;0.60;;
25780;SDS011;13626;48.128;11.628;2024-03-23T10:28:52;2.47;;;0.95;;
25780;SDS011;13626;48.128;11.628;2024-03-23T10:31:19;1.25;;;1.10;;
25780;SDS011;13626;48.128;11.628;2024-03-23T10:33:46;1.00;;;0.90;;
25780;SDS011;13626;48.128;11.628;2024-03-23T10:36:13;1.27;;;0.90;;
25780;SDS011;13626;48.128;11.628;2024-03-23T10:38:43;1.67;;;1.20;;
25780;SDS011;13626;48.128;11.628;2024-03-23T10:41:12;1.17;;;1.00;;
25780;SDS011;13626;48.128;11.628;2024-03-23T10:43:39;1.13;;;0.90;;
25780;SDS011;13626;48.128;11.628;2024-03-23T10:46:05;1.90;;;1.13;;
25780;SDS011;13626;48.128;11.628;2024-03-23T10:48:32;3.65;;;1.17;;
25780;SDS011;13626;48.128;11.628;2024-03-23T10:50:59;1.48;;;0.82;;
25780;SDS011;13626;48.128;11.628;2024-03-23T10:53:26;1.15;;;0.90;;
25780;SDS011;13626;48.128;11.628;2024-03-23T10:55:53;1.50;;;0.70;;
25780;SDS011;13626;48.128;11.628;2024-03-23T10:58:24;0.55;;;0.50;;
25780;SDS011;13626;48.128;11.628;2024-03-23T11:00:53;0.80;;;0.57;;
25780;SDS011;13626;48.128;11.628;2024-03-23T11:03:29;1.55;;;0.82;;
25780;SDS011;13626;48.128;11.628;2024-03-23T11:05:56;0.50;;;0.50;;
25780;SDS011;13626;48.128;11.628;2024-03-23T11:13:43;1.17;;;0.70;;
25780;SDS011;13626;48.128;11.628;2024-03-23T11:16:16;2.65;;;0.50;;
25780;SDS011;13626;48.128;11.628;2024-03-23T11:18:43;1.30;;;0.70;;
25780;SDS011;13626;48.128;11.628;2024-03-23T11:21:10;3.00;;;0.80;;
25780;SDS011;13626;48.128;11.628;2024-03-23T11:23:36;1.33;;;0.70;;
25780;SDS011;13626;48.128;11.628;2024-03-23T11:26:06;1.55;;;0.80;;
25780;SDS011;13626;48.128;11.628;2024-03-23T11:28:33;0.65;;;0.55;;
25780;SDS011;13626;48.128;11.628;2024-03-23T11:30:59;0.63;;;0.60;;
25780;SDS011;13626;48.128;11.628;2024-03-23T11:33:25;1.30;;;0.88;;
25780;SDS011;13626;48.128;11.628;2024-03-23T11:35:52;1.42;;;0.93;;
25780;SDS011;13626;48.128;11.628;2024-03-23T11:38:18;1.20;;;0.90;;
25780;SDS011;13626;48.128;11.628;2024-03-23T11:40:45;1.10;;;0.80;;
25780;SDS011;13626;48.128;11.628;2024-03-23T11:43:21;1.33;;;0.63;;
25780;SDS011;13626;48.128;11.628;2024-03-23T11:45:48;1.30;;;0.60;;
25780;SDS011;13626;48.128;11.628;2024-03-23T11:48:19;1.77;;;0.60;;
25780;SDS011;13626;48.128;11.628;2024-03-23T11:50:46;1.33;;;1.00;;
25780;SDS011;13626;48.128;11.628;2024-03-23T11:53:14;2.03;;;1.00;;
25780;SDS011;13626;48.128;11.628;2024-03-23T11:55:50;1.50;;;1.13;;
25780;SDS011;13626;48.128;11.628;2024-03-23T11:58:18;3.25;;;0.93;;
25780;SDS011;13626;48.128;11.628;2024-03-23T12:00:52;1.88;;;0.93;;
25780;SDS011;13626;48.128;11.628;2024-03-23T12:03:19;1.85;;;1.10;;
25780;SDS011;13626;48.128;11.628;2024-03-23T12:05:51;1.30;;;0.98;;
25780;SDS011;13626;48.128;11.628;2024-03-23T12:10:48;2.28;;;1.10;;
25780;SDS011;13626;48.128;11.628;2024-03-23T12:13:15;4.15;;;1.42;;
25780;SDS011;13626;48.128;11.628;2024-03-23T12:15:42;1.92;;;1.10;;
25780;SDS011;13626;48.128;11.628;2024-03-23T12:18:09;3.13;;;1.40;;
25780;SDS011;13626;48.128;11.628;2024-03-23T12:20:36;1.13;;;0.93;;
25780;SDS011;13626;48.128;11.628;2024-03-23T12:23:06;3.65;;;1.40;;
25780;SDS011;13626;48.128;11.628;2024-03-23T12:25:33;2.30;;;1.50;;
25780;SDS011;13626;48.128;11.628;2024-03-23T12:28:00;1.50;;;1.20;;
25780;SDS011;13626;48.128;11.628;2024-03-23T12:30:26;2.58;;;1.40;;
25780;SDS011;13626;48.128;11.628;2024-03-23T12:32:52;2.72;;;1.60;;
25780;SDS011;13626;48.128;11.628;2024-03-23T12:35:19;2.22;;;1.27;;
25780;SDS011;13626;48.128;11.628;2024-03-23T12:37:45;3.50;;;1.30;;
25780;SDS011;13626;48.128;11.628;2024-03-23T12:40:11;2.38;;;1.40;;
25780;SDS011;13626;48.128;11.628;2024-03-23T12:42:38;2.53;;;1.60;;
25780;SDS011;13626;48.128;11.628;2024-03-23T12:45:04;3.55;;;1.42;;
25780;SDS011;13626;48.128;11.628;2024-03-23T12:47:31;4.85;;;2.15;;
25780;SDS011;13626;48.128;11.628;2024-03-23T12:49:57;2.63;;;1.85;;
25780;SDS011;13626;48.128;11.628;2024-03-23T12:52:23;1.75;;;1.40;;
25780;SDS011;13626;48.128;11.628;2024-03-23T12:54:56;4.18;;;1.80;;
25780;SDS011;13626;48.128;11.628;2024-03-23T12:57:26;1.92;;;1.45;;
25780;SDS011;13626;48.128;11.628;2024-03-23T12:59:53;4.05;;;1.70;;
25780;SDS011;13626;48.128;11.628;2024-03-23T13:02:19;1.60;;;1.50;;
25780;SDS011;13626;48.128;11.628;2024-03-23T13:04:46;2.55;;;1.63;;
25780;SDS011;13626;48.128;11.628;2024-03-23T13:07:13;6.93;;;1.67;;
25780;SDS011;13626;48.128;11.628;2024-03-23T13:09:39;3.00;;;1.70;;
25780;SDS011;13626;48.128;11.628;2024-03-23T13:12:06;2.20;;;1.50;;
25780;SDS011;13626;48.128;11.628;2024-03-23T13:14:33;1.98;;;1.60;;
25780;SDS011;13626;48.128;11.628;2024-03-23T13:16:59;7.15;;;3.10;;
25780;SDS011;13626;48.128;11.628;2024-03-23T13:19:25;3.35;;;2.30;;
25780;SDS011;13626;48.128;11.628;2024-03-23T13:21:53;4.32;;;2.15;;
25780;SDS011;13626;48.128;11.628;2024-03-23T13:24:23;3.85;;;2.35;;
25780;SDS011;13626;48.128;11.628;2024-03-23T13:26:50;3.97;;;1.80;;
25780;SDS011;13626;48.128;11.628;2024-03-23T13:29:18;5.00;;;1.92;;
25780;SDS011;13626;48.128;11.628;2024-03-23T13:31:45;6.75;;;1.88;;
25780;SDS011;13626;48.128;11.628;2024-03-23T13:34:12;3.50;;;2.03;;
25780;SDS011;13626;48.128;11.628;2024-03-23T13:36:40;4.95;;;2.00;;
25780;SDS011;13626;48.128;11.628;2024-03-23T13:39:07;2.47;;;1.75;;
25780;SDS011;13626;48.128;11.628;2024-03-23T13:41:41;3.60;;;1.75;;
25780;SDS011;13626;48.128;11.628;2024-03-23T13:44:07;4.70;;;2.03;;
25780;SDS011;13626;48.128;11.628;2024-03-23T13:46:35;3.08;;;1.70;;
25780;SDS011;13626;48.128;11.628;2024-03-23T13:49:02;4.90;;;1.52;;
25780;SDS011;13626;48.128;11.628;2024-03-23T13:51:29;3.05;;;1.60;;
25780;SDS011;13626;48.128;11.628;2024-03-23T13:53:55;2.25;;;1.65;;
25780;SDS011;13626;48.128;11.628;2024-03-23T13:56:22;2.70;;;1.65;;
25780;SDS011;13626;48.128;11.628;2024-03-23T13:58:48;4.65;;;2.00;;
25780;SDS011;13626;48.128;11.628;2024-03-23T14:01:15;2.83;;;1.90;;
25780;SDS011;13626;48.128;11.628;2024-03-23T14:03:42;5.70;;;2.03;;
25780;SDS011;13626;48.128;11.628;2024-03-23T14:06:09;6.85;;;2.58;;
25780;SDS011;13626;48.128;11.628;2024-03-23T14:08:36;7.38;;;2.58;;
25780;SDS011;13626;48.128;11.628;2024-03-23T14:11:13;4.53;;;2.50;;
25780;SDS011;13626;48.128;11.628;2024-03-23T14:13:40;7.03;;;2.30;;
25780;SDS011;13626;48.128;11.628;2024-03-23T14:16:06;3.58;;;1.98;;
25780;SDS011;13626;48.128;11.628;2024-03-23T14:18:32;7.00;;;2.78;;
25780;SDS011;13626;48.128;11.628;2024-03-23T14:20:59;3.20;;;2.10;;
25780;SDS011;13626;48.128;11.628;2024-03-23T14:23:30;4.97;;;2.53;;
25780;SDS011;13626;48.128;11.628;2024-03-23T14:25:59;4.45;;;2.30;;
25780;SDS011;13626;48.128;11.628;2024-03-23T14:28:26;3.85;;;2.40;;
25780;SDS011;13626;48.128;11.628;2024-03-23T14:30:54;3.70;;;2.17;;
25780;SDS011;13626;48.128;11.628;2024-03-23T14:33:21;5.22;;;2.10;;
25780;SDS011;13626;48.128;11.628;2024-03-23T14:35:51;4.95;;;2.40;;
25780;SDS011;13626;48.128;11.628;2024-03-23T14:38:18;6.43;;;2.70;;
25780;SDS011;13626;48.128;11.628;2024-03-23T14:40:48;6.18;;;2.60;;
25780;SDS011;13626;48.128;11.628;2024-03-23T14:43:14;11.60;;;3.35;;
25780;SDS011;13626;48.128;11.628;2024-03-23T14:48:26;4.47;;;2.10;;
25780;SDS011;13626;48.128;11.628;2024-03-23T14:50:56;4.18;;;1.80;;
25780;SDS011;13626;48.128;11.628;2024-03-23T14:53:22;5.43;;;1.83;;
25780;SDS011;13626;48.128;11.628;2024-03-23T14:55:49;4.45;;;1.83;;
25780;SDS011;13626;48.128;11.628;2024-03-23T14:58:16;6.15;;;1.70;;
25780;SDS011;13626;48.128;11.628;2024-03-23T15:00:42;3.72;;;1.83;;
25780;SDS011;13626;48.128;11.628;2024-03-23T15:03:08;5.90;;;2.47;;
25780;SDS011;13626;48.128;11.628;2024-03-23T15:05:35;3.75;;;1.27;;
25780;SDS011;13626;48.128;11.628;2024-03-23T15:08:02;2.53;;;1.42;;
25780;SDS011;13626;48.128;11.628;2024-03-23T15:10:29;4.18;;;1.70;;
25780;SDS011;13626;48.128;11.628;2024-03-23T15:12:55;5.20;;;1.80;;
25780;SDS011;13626;48.128;11.628;2024-03-23T15:15:21;5.38;;;1.80;;
25780;SDS011;13626;48.128;11.628;2024-03-23T15:17:48;5.20;;;1.77;;
25780;SDS011;13626;48.128;11.628;2024-03-23T15:20:15;7.18;;;2.03;;
25780;SDS011;13626;48.128;11.628;2024-03-23T15:22:42;2.85;;;1.60;;
25780;SDS011;13626;48.128;11.628;2024-03-23T15:25:08;3.83;;;1.98;;
25780;SDS011;13626;48.128;11.628;2024-03-23T15:27:35;3.38;;;1.75;;
25780;SDS011;13626;48.128;11.628;2024-03-23T15:30:01;6.05;;;1.70;;
25780;SDS011;13626;48.128;11.628;2024-03-23T15:32:28;2.90;;;1.67;;
25780;SDS011;13626;48.128;11.628;2024-03-23T15:34:54;3.05;;;1.73;;
25780;SDS011;13626;48.128;11.628;2024-03-23T15:37:21;5.43;;;2.53;;